Time,TemperatureF,DewpointF,PressureIn,WindDirection,WindDirectionDegrees,WindSpeedMPH,WindSpeedGustMPH,Humidity,HourlyPrecipIn,Conditions,Clouds,dailyrainin,SoftwareType,DateUTC
2013-07-06 00:00:00,51.9,51.9,29.65,NNE,32,0.0,0.0,100,0.00,,,0.00,Wunderground v.1.12,2013-07-06 07:00:00,
2013-07-06 00:10:00,51.9,51.9,29.65,NNE,32,0.0,0.0,100,0.00,,,0.00,Wunderground v.1.12,2013-07-06 07:10:00,
2013-07-06 00:20:00,51.7,51.7,29.65,NNE,33,0.0,0.0,100,0.00,,,0.00,Wunderground v.1.12,2013-07-06 07:20:00,
2013-07-06 00:30:00,51.4,51.4,29.65,NNE,32,0.0,0.0,100,0.00,,,0.00,Wunderground v.1.12,2013-07-06 07:30:00,
2013-07-06 00:40:00,51.1,51.1,29.65,NNE,32,0.0,0.0,100,0.00,,,0.00,Wunderground v.1.12,2013-07-06 07:40:00,
2013-07-06 00:50:00,51.0,51.0,29.65,NNE,32,0.0,0.0,100,0.00,,,0.00,Wunderground v.1.12,2013-07-06 07:50:00,
2013-07-06 01:00:00,51.1,51.1,29.65,NNE,33,0.0,0.0,100,0.00,,,0.00,Wunderground v.1.12,2013-07-06 08:00:00,
2013-07-06 01:10:00,51.0,51.0,29.65,NNE,32,0.0,0.0,100,0.00,,,0.00,Wunderground v.1.12,2013-07-06 08:10:00,
2013-07-06 01:20:00,50.8,50.8,29.65,NNE,33,0.0,0.0,100,0.00,,,0.00,Wunderground v.1.12,2013-07-06 08:20:00,
2013-07-06 01:30:00,50.7,50.7,29.65,NNE,32,0.0,0.0,100,0.00,,,0.00,Wunderground v.1.12,2013-07-06 08:30:00,
2013-07-06 01:40:00,50.2,50.2,29.65,NNE,32,0.0,0.0,100,0.00,,,0.00,Wunderground v.1.12,2013-07-06 08:40:00,
2013-07-06 01:50:00,49.9,49.9,29.65,NNE,32,0.0,0.0,100,0.00,,,0.00,Wunderground v.1.12,2013-07-06 08:50:00,
2013-07-06 02:00:00,50.1,50.1,29.65,NNE,33,0.0,0.0,100,0.00,,,0.00,Wunderground v.1.12,2013-07-06 09:00:00,
2013-07-06 02:10:00,50.1,50.1,29.65,NNE,32,0.0,0.0,100,0.00,,,0.00,Wunderground v.1.12,2013-07-06 09:10:00,
2013-07-06 02:20:00,50.1,50.1,29.65,NNE,33,0.0,0.0,100,0.00,,,0.00,Wunderground v.1.12,2013-07-06 09:20:00,
2013-07-06 02:30:00,50.2,50.2,29.65,NNE,32,0.0,0.0,100,0.00,,,0.00,Wunderground v.1.12,2013-07-06 09:30:00,
2013-07-06 02:40:00,50.2,50.2,29.65,NNE,32,0.0,0.0,100,0.00,,,0.00,Wunderground v.1.12,2013-07-06 09:40:00,
2013-07-06 02:50:00,49.9,49.9,29.65,NNE,32,0.0,0.0,100,0.00,,,0.00,Wunderground v.1.12,2013-07-06 09:50:00,
2013-07-06 03:00:00,50.1,50.1,29.65,NNE,32,0.0,0.0,100,0.00,,,0.00,Wunderground v.1.12,2013-07-06 10:00:00,
2013-07-06 03:10:00,49.9,49.9,29.65,NNE,32,0.0,0.0,100,0.00,,,0.00,Wunderground v.1.12,2013-07-06 10:10:00,
2013-07-06 03:20:00,49.8,49.8,29.65,NNE,32,0.0,0.0,100,0.00,,,0.00,Wunderground v.1.12,2013-07-06 10:20:00,
2013-07-06 03:30:00,49.6,49.6,29.65,NNE,33,0.0,0.0,100,0.00,,,0.00,Wunderground v.1.12,2013-07-06 10:30:00,
2013-07-06 03:40:00,49.4,49.4,29.65,NNE,32,0.0,0.0,100,0.00,,,0.00,Wunderground v.1.12,2013-07-06 10:40:00,
2013-07-06 03:50:00,49.1,49.1,29.65,NNE,32,0.0,0.0,100,0.00,,,0.00,Wunderground v.1.12,2013-07-06 10:50:00,
2013-07-06 04:00:00,48.8,48.8,29.65,NNE,33,0.0,0.0,100,0.00,,,0.00,Wunderground v.1.12,2013-07-06 11:00:00,
2013-07-06 04:10:00,48.6,48.6,29.65,NNE,32,0.0,0.0,100,0.00,,,0.00,Wunderground v.1.12,2013-07-06 11:10:00,
2013-07-06 04:20:00,48.5,48.5,29.65,NNE,32,0.0,0.0,100,0.00,,,0.00,Wunderground v.1.12,2013-07-06 11:20:00,
2013-07-06 04:30:00,48.5,48.5,29.65,NNE,32,0.0,0.0,100,0.00,,,0.00,Wunderground v.1.12,2013-07-06 11:30:00,
2013-07-06 04:40:00,48.5,48.5,29.65,NNE,32,0.0,0.0,100,0.00,,,0.00,Wunderground v.1.12,2013-07-06 11:40:00,
2013-07-06 04:50:00,48.6,48.6,29.65,NNE,33,0.0,0.0,100,0.00,,,0.00,Wunderground v.1.12,2013-07-06 11:50:00,
2013-07-06 05:00:00,48.8,48.8,29.65,NNE,32,0.0,0.0,100,0.00,,,0.00,Wunderground v.1.12,2013-07-06 12:00:00,
2013-07-06 05:10:00,49.1,49.1,29.65,NNE,33,0.0,0.0,100,0.00,,,0.00,Wunderground v.1.12,2013-07-06 12:10:00,
2013-07-06 05:20:00,49.4,49.4,29.66,NNE,33,0.0,0.0,100,0.00,,,0.00,Wunderground v.1.12,2013-07-06 12:20:00,
2013-07-06 05:30:00,49.6,49.6,29.66,NNE,32,0.0,0.0,100,0.00,,,0.00,Wunderground v.1.12,2013-07-06 12:30:00,
2013-07-06 05:40:00,49.6,49.6,29.66,NNE,32,0.0,0.0,100,0.00,,,0.00,Wunderground v.1.12,2013-07-06 12:40:00,
2013-07-06 05:50:00,49.6,49.6,29.66,NNE,33,0.0,0.0,100,0.00,,,0.00,Wunderground v.1.12,2013-07-06 12:50:00,
2013-07-06 06:00:00,49.6,49.6,29.66,NNE,32,0.0,0.0,100,0.00,,,0.00,Wunderground v.1.12,2013-07-06 13:00:00,
2013-07-06 06:10:00,49.8,49.8,29.66,NNE,32,0.0,0.0,100,0.00,,,0.00,Wunderground v.1.12,2013-07-06 13:10:00,
2013-07-06 06:20:00,49.9,49.9,29.66,NNE,32,0.0,0.0,100,0.00,,,0.00,Wunderground v.1.12,2013-07-06 13:20:00,
2013-07-06 06:30:00,50.2,50.2,29.66,NNE,32,0.0,0.0,100,0.00,,,0.00,Wunderground v.1.12,2013-07-06 13:30:00,
2013-07-06 06:40:00,50.2,50.2,29.67,NNE,32,0.0,0.0,100,0.00,,,0.00,Wunderground v.1.12,2013-07-06 13:40:00,
2013-07-06 06:50:00,50.5,50.5,29.67,NNE,32,0.0,0.0,100,0.00,,,0.00,Wunderground v.1.12,2013-07-06 13:50:00,
2013-07-06 07:00:00,50.8,50.8,29.67,NNE,32,0.0,0.0,100,0.00,,,0.00,Wunderground v.1.12,2013-07-06 14:00:00,
2013-07-06 07:10:00,51.3,51.3,29.67,NNE,32,0.0,0.0,100,0.00,,,0.00,Wunderground v.1.12,2013-07-06 14:10:00,
2013-07-06 07:20:00,51.9,51.9,29.67,NNE,33,0.0,0.0,100,0.00,,,0.00,Wunderground v.1.12,2013-07-06 14:20:00,
2013-07-06 07:30:00,52.3,52.3,29.67,NNE,32,0.0,0.0,100,0.00,,,0.00,Wunderground v.1.12,2013-07-06 14:30:00,
2013-07-06 07:40:00,52.6,52.6,29.68,NNE,32,0.0,0.0,100,0.00,,,0.00,Wunderground v.1.12,2013-07-06 14:40:00,
2013-07-06 07:50:00,53.1,53.1,29.68,NNE,33,0.0,0.0,100,0.00,,,0.00,Wunderground v.1.12,2013-07-06 14:50:00,
2013-07-06 08:00:00,53.6,53.6,29.68,NNE,32,0.0,0.0,100,0.00,,,0.00,Wunderground v.1.12,2013-07-06 15:00:00,
2013-07-06 08:10:00,54.1,54.1,29.68,NNE,32,0.0,0.0,100,0.00,,,0.00,Wunderground v.1.12,2013-07-06 15:10:00,
2013-07-06 08:20:00,54.7,54.7,29.68,NE,53,0.0,0.0,100,0.00,,,0.00,Wunderground v.1.12,2013-07-06 15:20:00,
2013-07-06 08:30:00,56.2,56.2,29.68,NE,38,0.0,0.0,100,0.00,,,0.00,Wunderground v.1.12,2013-07-06 15:30:00,
2013-07-06 08:40:00,56.7,56.7,29.69,NW,319,0.0,0.0,100,0.00,,,0.00,Wunderground v.1.12,2013-07-06 15:40:00,
2013-07-06 08:50:00,58.3,58.3,29.69,NW,325,0.0,2.0,100,0.00,,,0.00,Wunderground v.1.12,2013-07-06 15:50:00,
2013-07-06 09:00:00,59.9,59.9,29.69,West,281,0.0,0.0,100,0.00,,,0.00,Wunderground v.1.12,2013-07-06 16:00:00,
2013-07-06 09:10:00,60.1,60.1,29.70,WNW,288,0.0,0.0,100,0.00,,,0.00,Wunderground v.1.12,2013-07-06 16:10:00,
2013-07-06 09:20:00,61.2,61.2,29.70,SSW,211,0.0,0.0,100,0.00,,,0.00,Wunderground v.1.12,2013-07-06 16:20:00,
2013-07-06 09:30:00,62.4,62.4,29.70,South,187,0.0,0.0,100,0.00,,,0.00,Wunderground v.1.12,2013-07-06 16:30:00,
2013-07-06 09:40:00,63.7,63.7,29.70,SSW,206,0.0,0.0,100,0.00,,,0.00,Wunderground v.1.12,2013-07-06 16:40:00,
2013-07-06 09:45:00,64.5,64.5,29.69,SW,225,0.0,1.0,100,0.00,,,-99.99,WeatherLink 5.8.2,2013-07-06 16:45:00,
2013-07-06 09:50:00,65.2,65.2,29.69,WSW,247,0.0,4.0,100,0.00,,,-99.99,WeatherLink 5.8.2,2013-07-06 16:50:00,
2013-07-06 10:00:00,65.8,65.8,29.69,SSW,211,0.0,0.0,100,0.00,,,0.00,Wunderground v.1.12,2013-07-06 17:00:00,
2013-07-06 10:10:00,66.0,66.0,29.69,SW,225,2.0,8.0,100,0.00,,,-99.99,WeatherLink 5.8.2,2013-07-06 17:10:00,
2013-07-06 10:13:00,66.1,66.1,29.69,SW,225,2.0,7.0,100,0.00,,,-99.99,WeatherLink 5.8.2,2013-07-06 17:13:00,
2013-07-06 10:20:00,66.1,66.1,29.69,SSW,210,3.0,6.0,100,0.00,,,0.00,Wunderground v.1.12,2013-07-06 17:20:00,
2013-07-06 10:30:00,67.6,67.6,29.69,WNW,288,1.0,1.0,100,0.00,,,0.00,Wunderground v.1.12,2013-07-06 17:30:00,
2013-07-06 10:40:00,67.9,67.9,29.70,SSW,211,3.0,5.0,100,0.00,,,0.00,Wunderground v.1.12,2013-07-06 17:40:00,
2013-07-06 10:50:00,67.9,67.9,29.69,SSW,211,2.0,2.0,100,0.00,,,0.00,Wunderground v.1.12,2013-07-06 17:50:00,
2013-07-06 11:00:00,68.1,68.1,29.69,SSW,206,3.0,3.0,100,0.00,,,0.00,Wunderground v.1.12,2013-07-06 18:00:00,
2013-07-06 11:05:00,67.9,67.9,29.69,SSW,202,2.0,9.0,100,0.00,,,-99.99,WeatherLink 5.8.2,2013-07-06 18:05:00,
2013-07-06 11:10:00,68.6,68.6,29.69,SW,225,2.0,7.0,100,0.00,,,-99.99,WeatherLink 5.8.2,2013-07-06 18:10:00,
2013-07-06 11:20:00,69.4,69.4,29.70,South,182,2.0,2.0,100,0.00,,,0.00,Wunderground v.1.12,2013-07-06 18:20:00,
2013-07-06 11:25:00,69.8,69.8,29.69,WNW,292,2.0,7.0,100,0.00,,,-99.99,WeatherLink 5.8.2,2013-07-06 18:25:00,
2013-07-06 11:30:00,69.8,69.8,29.70,WNW,287,2.0,2.0,100,0.00,,,0.00,Wunderground v.1.12,2013-07-06 18:30:00,
2013-07-06 11:35:00,70.8,70.8,29.69,WNW,292,1.0,5.0,100,0.00,,,-99.99,WeatherLink 5.8.2,2013-07-06 18:35:00,
2013-07-06 11:40:00,70.4,70.4,29.69,SW,225,3.0,8.0,100,0.00,,,-99.99,WeatherLink 5.8.2,2013-07-06 18:40:00,
2013-07-06 11:45:00,70.6,70.6,29.70,SW,225,3.0,11.0,100,0.00,,,-99.99,WeatherLink 5.8.2,2013-07-06 18:45:00,
2013-07-06 11:50:00,70.4,70.4,29.70,SSW,202,3.0,11.0,100,0.00,,,-99.99,WeatherLink 5.8.2,2013-07-06 18:50:00,
2013-07-06 12:00:00,71.3,71.3,29.70,SSW,207,3.0,3.0,100,0.00,,,0.00,Wunderground v.1.12,2013-07-06 19:00:00,
2013-07-06 12:10:00,71.1,71.1,29.70,WSW,244,4.0,4.0,100,0.00,,,0.00,Wunderground v.1.12,2013-07-06 19:10:00,
2013-07-06 12:20:00,72.5,72.5,29.69,South,182,3.0,3.0,100,0.00,,,0.00,Wunderground v.1.12,2013-07-06 19:20:00,
2013-07-06 12:30:00,73.0,73.0,29.69,WNW,284,2.0,2.0,100,0.00,,,0.00,Wunderground v.1.12,2013-07-06 19:30:00,
2013-07-06 12:40:00,74.6,74.6,29.69,NNW,339,1.0,1.0,100,0.00,,,0.00,Wunderground v.1.12,2013-07-06 19:40:00,
2013-07-06 12:45:00,73.9,73.9,29.68,SSW,202,3.0,9.0,100,0.00,,,-99.99,WeatherLink 5.8.2,2013-07-06 19:45:00,
2013-07-06 12:50:00,73.9,73.9,29.68,SW,225,4.0,7.0,100,0.00,,,0.00,Wunderground v.1.12,2013-07-06 19:50:00,
2013-07-06 13:00:00,74.6,74.6,29.68,South,180,3.0,3.0,100,0.00,,,0.00,Wunderground v.1.12,2013-07-06 20:00:00,
2013-07-06 13:10:00,74.4,74.4,29.69,SSE,159,4.0,4.0,100,0.00,,,0.00,Wunderground v.1.12,2013-07-06 20:10:00,
2013-07-06 13:20:00,74.4,74.4,29.68,SW,235,4.0,5.0,100,0.00,,,0.00,Wunderground v.1.12,2013-07-06 20:20:00,
2013-07-06 13:30:00,74.7,74.7,29.68,SW,221,3.0,5.0,100,0.00,,,0.00,Wunderground v.1.12,2013-07-06 20:30:00,
2013-07-06 13:35:00,75.3,75.3,29.68,SW,225,2.0,10.0,100,0.00,,,-99.99,WeatherLink 5.8.2,2013-07-06 20:35:00,
2013-07-06 13:40:00,75.6,75.6,29.68,SW,225,2.0,9.0,100,0.00,,,-99.99,WeatherLink 5.8.2,2013-07-06 20:40:00,
2013-07-06 13:50:00,75.8,75.8,29.68,SW,219,3.0,8.0,100,0.00,,,0.00,Wunderground v.1.12,2013-07-06 20:50:00,
2013-07-06 14:00:00,75.1,75.1,29.68,SW,216,5.0,5.0,100,0.00,,,0.00,Wunderground v.1.12,2013-07-06 21:00:00,
2013-07-06 14:10:00,75.4,75.4,29.68,SW,236,3.0,4.0,100,0.00,,,0.00,Wunderground v.1.12,2013-07-06 21:10:00,
2013-07-06 14:15:00,75.8,75.8,29.67,SW,225,2.0,8.0,100,0.00,,,-99.99,WeatherLink 5.8.2,2013-07-06 21:15:00,
2013-07-06 14:20:00,75.8,75.8,29.67,SSW,207,3.0,3.0,100,0.00,,,0.00,Wunderground v.1.12,2013-07-06 21:20:00,
2013-07-06 14:30:00,76.0,76.0,29.67,SW,224,3.0,3.0,100,0.00,,,0.00,Wunderground v.1.12,2013-07-06 21:30:00,
2013-07-06 14:40:00,74.7,74.7,29.67,SW,225,6.0,11.0,100,0.00,,,-99.99,WeatherLink 5.8.2,2013-07-06 21:40:00,
2013-07-06 14:43:00,75.6,75.6,29.67,SW,225,5.0,11.0,100,0.00,,,-99.99,WeatherLink 5.8.2,2013-07-06 21:43:00,
2013-07-06 14:50:00,73.9,73.9,29.67,SW,225,6.0,12.0,100,0.00,,,-99.99,WeatherLink 5.8.2,2013-07-06 21:50:00,
2013-07-06 14:53:00,74.4,74.4,29.67,SW,225,6.0,11.0,100,0.00,,,-99.99,WeatherLink 5.8.2,2013-07-06 21:53:00,
2013-07-06 15:00:00,73.3,73.3,29.67,WSW,254,6.0,9.0,100,0.00,,,0.00,Wunderground v.1.12,2013-07-06 22:00:00,
2013-07-06 15:05:00,72.8,72.8,29.67,SW,225,5.0,13.0,100,0.00,,,-99.99,WeatherLink 5.8.2,2013-07-06 22:05:00,
2013-07-06 15:10:00,72.8,72.8,29.67,SW,225,6.0,12.0,100,0.00,,,-99.99,WeatherLink 5.8.2,2013-07-06 22:10:00,
2013-07-06 15:20:00,73.0,73.0,29.67,SSE,152,5.0,5.0,100,0.00,,,0.00,Wunderground v.1.12,2013-07-06 22:20:00,
2013-07-06 15:25:00,72.5,72.5,29.67,SW,225,6.0,11.0,100,0.00,,,-99.99,WeatherLink 5.8.2,2013-07-06 22:25:00,
2013-07-06 15:30:00,72.5,72.5,29.67,SW,229,6.0,6.0,100,0.00,,,0.00,Wunderground v.1.12,2013-07-06 22:30:00,
2013-07-06 15:35:00,72.3,72.3,29.67,SW,225,6.0,12.0,100,0.00,,,-99.99,WeatherLink 5.8.2,2013-07-06 22:35:00,
2013-07-06 15:40:00,72.5,72.5,29.67,SW,226,6.0,8.0,100,0.00,,,0.00,Wunderground v.1.12,2013-07-06 22:40:00,
2013-07-06 15:45:00,71.3,71.3,29.67,SW,225,6.0,11.0,100,0.00,,,-99.99,WeatherLink 5.8.2,2013-07-06 22:45:00,
2013-07-06 15:50:00,71.3,71.3,29.67,SW,236,7.0,7.0,100,0.00,,,0.00,Wunderground v.1.12,2013-07-06 22:50:00,
2013-07-06 15:55:00,73.0,73.0,29.67,SW,225,3.0,12.0,100,0.00,,,-99.99,WeatherLink 5.8.2,2013-07-06 22:55:00,
2013-07-06 16:00:00,73.0,73.0,29.67,SSW,213,4.0,7.0,100,0.00,,,0.00,Wunderground v.1.12,2013-07-06 23:00:00,
2013-07-06 16:10:00,72.8,72.8,29.67,SW,225,5.0,14.0,100,0.00,,,-99.99,WeatherLink 5.8.2,2013-07-06 23:10:00,
2013-07-06 16:20:00,72.8,72.8,29.66,WSW,257,4.0,4.0,100,0.00,,,0.00,Wunderground v.1.12,2013-07-06 23:20:00,
2013-07-06 16:30:00,73.9,73.9,29.66,WNW,292,3.0,12.0,100,0.00,,,-99.99,WeatherLink 5.8.2,2013-07-06 23:30:00,
2013-07-06 16:33:00,73.7,73.7,29.67,SW,225,2.0,8.0,100,0.00,,,-99.99,WeatherLink 5.8.2,2013-07-06 23:33:00,
2013-07-06 16:40:00,73.7,73.7,29.66,WSW,246,3.0,3.0,100,0.00,,,0.00,Wunderground v.1.12,2013-07-06 23:40:00,
2013-07-06 16:50:00,71.8,71.8,29.66,SW,225,4.0,11.0,100,0.00,,,-99.99,WeatherLink 5.8.2,2013-07-06 23:50:00,
2013-07-06 16:53:00,72.3,72.3,29.66,SW,225,4.0,10.0,100,0.00,,,-99.99,WeatherLink 5.8.2,2013-07-06 23:53:00,
2013-07-06 16:55:00,71.8,71.8,29.66,SW,225,4.0,11.0,100,0.00,,,-99.99,WeatherLink 5.8.2,2013-07-06 23:55:00,
2013-07-06 17:00:00,70.9,70.9,29.66,SW,225,5.0,11.0,100,0.00,,,-99.99,WeatherLink 5.8.2,2013-07-07 00:00:00,
2013-07-06 17:05:00,71.1,71.1,29.66,SW,225,3.0,8.0,100,0.00,,,-99.99,WeatherLink 5.8.2,2013-07-07 00:05:00,
2013-07-06 17:10:00,70.8,70.8,29.66,SW,225,5.0,12.0,100,0.00,,,-99.99,WeatherLink 5.8.2,2013-07-07 00:10:00,
2013-07-06 17:20:00,70.3,70.3,29.66,West,267,5.0,5.0,100,0.00,,,0.00,Wunderground v.1.12,2013-07-07 00:20:00,
2013-07-06 17:30:00,69.4,69.4,29.66,SW,225,2.0,7.0,100,0.00,,,-99.99,WeatherLink 5.8.2,2013-07-07 00:30:00,
2013-07-06 17:33:00,69.3,69.3,29.66,SW,225,5.0,11.0,100,0.00,,,-99.99,WeatherLink 5.8.2,2013-07-07 00:33:00,
2013-07-06 17:40:00,69.1,69.1,29.66,SW,225,4.0,9.0,100,0.00,,,-99.99,WeatherLink 5.8.2,2013-07-07 00:40:00,
2013-07-06 17:43:00,69.3,69.3,29.66,SW,225,5.0,12.0,100,0.00,,,-99.99,WeatherLink 5.8.2,2013-07-07 00:43:00,
2013-07-06 17:50:00,68.6,68.6,29.65,SW,221,4.0,6.0,100,0.00,,,0.00,Wunderground v.1.12,2013-07-07 00:50:00,
2013-07-06 18:00:00,68.9,68.9,29.65,SW,225,3.0,13.0,100,0.00,,,-99.99,WeatherLink 5.8.2,2013-07-07 01:00:00,
2013-07-06 18:03:00,68.6,68.6,29.65,SW,225,3.0,8.0,100,0.00,,,-99.99,WeatherLink 5.8.2,2013-07-07 01:03:00,
2013-07-06 18:05:00,69.6,69.6,29.65,SW,225,2.0,8.0,100,0.00,,,-99.99,WeatherLink 5.8.2,2013-07-07 01:05:00,
2013-07-06 18:10:00,69.8,69.8,29.65,SW,222,2.0,2.0,100,0.00,,,0.00,Wunderground v.1.12,2013-07-07 01:10:00,
2013-07-06 18:15:00,69.4,69.4,29.66,West,270,2.0,7.0,100,0.00,,,-99.99,WeatherLink 5.8.2,2013-07-07 01:15:00,
2013-07-06 18:20:00,69.4,69.4,29.66,WSW,251,3.0,3.0,100,0.00,,,0.00,Wunderground v.1.12,2013-07-07 01:20:00,
2013-07-06 18:25:00,68.3,68.3,29.66,WNW,292,3.0,8.0,100,0.00,,,-99.99,WeatherLink 5.8.2,2013-07-07 01:25:00,
2013-07-06 18:30:00,67.9,67.9,29.66,West,270,3.0,7.0,100,0.00,,,-99.99,WeatherLink 5.8.2,2013-07-07 01:30:00,
2013-07-06 18:35:00,67.3,67.3,29.66,West,270,3.0,9.0,100,0.00,,,-99.99,WeatherLink 5.8.2,2013-07-07 01:35:00,
2013-07-06 18:40:00,67.3,67.3,29.66,SW,233,3.0,4.0,100,0.00,,,0.00,Wunderground v.1.12,2013-07-07 01:40:00,
2013-07-06 18:50:00,66.4,66.4,29.66,SW,227,2.0,2.0,100,0.00,,,0.00,Wunderground v.1.12,2013-07-07 01:50:00,
2013-07-06 18:55:00,65.8,65.8,29.66,West,270,0.0,2.0,100,0.00,,,-99.99,WeatherLink 5.8.2,2013-07-07 01:55:00,
2013-07-06 19:00:00,65.8,65.8,29.66,West,267,1.0,1.0,100,0.00,,,0.00,Wunderground v.1.12,2013-07-07 02:00:00,
2013-07-06 19:10:00,64.8,64.8,29.66,SW,221,1.0,1.0,100,0.00,,,0.00,Wunderground v.1.12,2013-07-07 02:10:00,
2013-07-06 19:20:00,63.2,63.2,29.66,WSW,240,2.0,3.0,100,0.00,,,0.00,Wunderground v.1.12,2013-07-07 02:20:00,
2013-07-06 19:30:00,61.5,61.5,29.66,SW,221,3.0,4.0,100,0.00,,,0.00,Wunderground v.1.12,2013-07-07 02:30:00,
2013-07-06 19:40:00,60.5,60.5,29.67,SW,224,3.0,3.0,100,0.00,,,0.00,Wunderground v.1.12,2013-07-07 02:40:00,
2013-07-06 19:50:00,59.5,59.5,29.67,WSW,247,1.0,6.0,100,0.00,,,-99.99,WeatherLink 5.8.2,2013-07-07 02:50:00,
2013-07-06 19:53:00,59.9,59.9,29.67,SW,225,0.0,5.0,100,0.00,,,-99.99,WeatherLink 5.8.2,2013-07-07 02:53:00,
2013-07-06 19:55:00,59.0,59.0,29.67,SW,225,1.0,3.0,100,0.00,,,-99.99,WeatherLink 5.8.2,2013-07-07 02:55:00,
2013-07-06 20:00:00,59.0,59.0,29.68,SW,229,1.0,2.0,100,0.00,,,0.00,Wunderground v.1.12,2013-07-07 03:00:00,
2013-07-06 20:05:00,58.0,58.0,29.68,SW,225,2.0,7.0,100,0.00,,,-99.99,WeatherLink 5.8.2,2013-07-07 03:05:00,
2013-07-06 20:10:00,57.5,57.5,29.68,SW,225,0.0,5.0,100,0.00,,,-99.99,WeatherLink 5.8.2,2013-07-07 03:10:00,
2013-07-06 20:15:00,57.0,57.0,29.68,SSW,202,1.0,4.0,100,0.00,,,-99.99,WeatherLink 5.8.2,2013-07-07 03:15:00,
2013-07-06 20:20:00,57.0,57.0,29.68,SSW,205,0.0,3.0,100,0.00,,,0.00,Wunderground v.1.12,2013-07-07 03:20:00,
2013-07-06 20:25:00,56.2,56.2,29.68,West,270,0.0,1.0,100,0.00,,,-99.99,WeatherLink 5.8.2,2013-07-07 03:25:00,
2013-07-06 20:30:00,56.3,56.3,29.68,West,265,0.0,0.0,100,0.00,,,0.00,Wunderground v.1.12,2013-07-07 03:30:00,
2013-07-06 20:40:00,55.6,55.6,29.68,SW,230,1.0,4.0,100,0.00,,,0.00,Wunderground v.1.12,2013-07-07 03:40:00,
2013-07-06 20:50:00,55.0,55.0,29.69,SSW,211,2.0,3.0,100,0.00,,,0.00,Wunderground v.1.12,2013-07-07 03:50:00,
2013-07-06 21:00:00,54.5,54.5,29.69,SW,234,2.0,2.0,100,0.00,,,0.00,Wunderground v.1.12,2013-07-07 04:00:00,
2013-07-06 21:03:00,54.4,54.4,29.69,SW,225,1.0,6.0,100,0.00,,,-99.99,WeatherLink 5.8.2,2013-07-07 04:03:00,
2013-07-06 21:10:00,54.1,54.1,29.69,SSW,196,1.0,1.0,100,0.00,,,0.00,Wunderground v.1.12,2013-07-07 04:10:00,
2013-07-06 21:13:00,54.1,54.1,29.69,SSW,202,1.0,5.0,100,0.00,,,-99.99,WeatherLink 5.8.2,2013-07-07 04:13:00,
2013-07-06 21:20:00,53.8,53.8,29.70,SW,231,2.0,2.0,100,0.00,,,0.00,Wunderground v.1.12,2013-07-07 04:20:00,
2013-07-06 21:30:00,53.5,53.5,29.70,SW,232,0.0,0.0,100,0.00,,,0.00,Wunderground v.1.12,2013-07-07 04:30:00,
2013-07-06 21:40:00,53.3,53.3,29.70,SW,231,0.0,0.0,100,0.00,,,0.00,Wunderground v.1.12,2013-07-07 04:40:00,
2013-07-06 21:50:00,52.9,52.9,29.70,SW,232,0.0,0.0,100,0.00,,,0.00,Wunderground v.1.12,2013-07-07 04:50:00,
2013-07-06 22:00:00,52.8,52.8,29.70,SW,232,0.0,0.0,100,0.00,,,0.00,Wunderground v.1.12,2013-07-07 05:00:00,
2013-07-06 22:10:00,52.5,52.5,29.70,SW,235,0.0,0.0,100,0.00,,,0.00,Wunderground v.1.12,2013-07-07 05:10:00,
2013-07-06 22:20:00,52.3,52.3,29.70,North,355,0.0,0.0,100,0.00,,,0.00,Wunderground v.1.12,2013-07-07 05:20:00,
2013-07-06 22:30:00,52.3,52.3,29.70,North,351,0.0,0.0,100,0.00,,,0.00,Wunderground v.1.12,2013-07-07 05:30:00,
2013-07-06 22:40:00,52.0,52.0,29.71,North,351,0.0,0.0,100,0.00,,,0.00,Wunderground v.1.12,2013-07-07 05:40:00,
2013-07-06 22:50:00,51.9,51.9,29.71,North,351,0.0,0.0,100,0.00,,,0.00,Wunderground v.1.12,2013-07-07 05:50:00,
2013-07-06 23:00:00,51.7,51.7,29.71,North,355,0.0,0.0,100,0.00,,,0.00,Wunderground v.1.12,2013-07-07 06:00:00,
2013-07-06 23:10:00,51.7,51.7,29.71,North,351,0.0,0.0,100,0.00,,,0.00,Wunderground v.1.12,2013-07-07 06:10:00,
2013-07-06 23:20:00,52.2,52.2,29.70,North,351,0.0,0.0,100,0.00,,,0.00,Wunderground v.1.12,2013-07-07 06:20:00,
2013-07-06 23:30:00,52.3,52.3,29.70,North,355,0.0,0.0,100,0.00,,,0.00,Wunderground v.1.12,2013-07-07 06:30:00,
2013-07-06 23:40:00,52.6,52.6,29.71,North,355,0.0,0.0,100,0.00,,,0.00,Wunderground v.1.12,2013-07-07 06:40:00,
2013-07-06 23:50:00,52.9,52.9,29.71,North,351,0.0,0.0,100,0.00,,,0.00,Wunderground v.1.12,2013-07-07 06:50:00,